Time;durP1;ratioP1;P1;durP2;ratioP2;P2;SDS_P1;SDS_P2;PMS_P1;PMS_P2;Temp;Humidity;BMP_temperature;BMP_pressure;BME280_temperature;BME280_humidity;BME280_pressure;Samples;Min_cycle;Max_cycle;Signal;HPM_P1;HPM_P2
2023/08/28 00:02:17;;;;;;;0.80;0.80;;;13.20;99.90;;;;;;5104501;27;20051;-84
2023/08/28 00:04:43;;;;;;;0.70;0.70;;;13.10;99.90;;;;;;5125685;27;20068;-85
2023/08/28 00:07:09;;;;;;;0.70;0.70;;;13.10;99.90;;;;;;5121020;27;20046;-84
2023/08/28 00:09:34;;;;;;;0.80;0.80;;;13.20;99.90;;;;;;5120819;27;20039;-85
2023/08/28 00:12:01;;;;;;;0.70;0.70;;;13.20;99.90;;;;;;5122208;27;20051;-85
2023/08/28 00:14:26;;;;;;;0.80;0.80;;;13.00;99.90;;;;;;5127305;27;20055;-83
2023/08/28 00:16:53;;;;;;;0.80;0.80;;;13.00;99.90;;;;;;5107324;27;20035;-83
2023/08/28 00:19:19;;;;;;;0.70;0.70;;;13.20;99.90;;;;;;5126257;27;20411;-84
2023/08/28 00:21:45;;;;;;;0.73;0.73;;;13.00;99.90;;;;;;5118656;27;20101;-85
2023/08/28 00:24:10;;;;;;;0.70;0.70;;;13.20;99.90;;;;;;5125542;27;20649;-84
2023/08/28 00:26:36;;;;;;;0.80;0.80;;;13.30;99.90;;;;;;5123954;27;20051;-84
2023/08/28 00:29:02;;;;;;;0.80;0.80;;;13.00;99.90;;;;;;5123861;27;20084;-85
2023/08/28 00:31:28;;;;;;;0.80;0.80;;;13.20;99.90;;;;;;5122799;27;20051;-84
2023/08/28 00:33:54;;;;;;;0.80;0.80;;;13.20;99.90;;;;;;5124517;27;20766;-84
2023/08/28 00:36:20;;;;;;;0.85;0.85;;;13.10;99.90;;;;;;5121340;27;20050;-83
2023/08/28 00:38:45;;;;;;;0.80;0.80;;;13.00;99.90;;;;;;5099797;27;20555;-86
2023/08/28 00:41:11;;;;;;;0.80;0.80;;;13.10;99.90;;;;;;5123081;27;20043;-84
2023/08/28 00:43:37;;;;;;;0.80;0.80;;;13.10;99.90;;;;;;5123015;27;20154;-86
2023/08/28 00:46:06;;;;;;;0.73;0.73;;;13.10;99.90;;;;;;5106952;27;20035;-85
2023/08/28 00:48:33;;;;;;;0.80;0.80;;;13.20;99.90;;;;;;5123129;27;20085;-84
2023/08/28 00:51:00;;;;;;;0.80;0.80;;;13.10;99.90;;;;;;5115865;27;20130;-86
2023/08/28 00:53:26;;;;;;;0.80;0.80;;;13.00;99.90;;;;;;5104485;27;20093;-85
2023/08/28 00:55:53;;;;;;;0.70;0.70;;;13.10;99.90;;;;;;5118876;27;20527;-85
2023/08/28 00:58:18;;;;;;;0.80;0.80;;;12.90;99.90;;;;;;5122171;27;20039;-84
2023/08/28 01:00:44;;;;;;;0.82;0.82;;;13.00;99.90;;;;;;5119633;27;20061;-85
2023/08/28 01:03:10;;;;;;;0.80;0.80;;;12.90;99.90;;;;;;5111177;27;22097;-84
2023/08/28 01:05:59;;;;;;;0.80;0.80;;;12.70;99.90;;;;;;5124265;27;20039;-84
2023/08/28 01:08:39;;;;;;;0.73;0.73;;;12.70;99.90;;;;;;5119367;27;20465;-84
2023/08/28 01:11:22;;;;;;;0.80;0.80;;;12.50;99.90;;;;;;5113619;27;20043;-84
2023/08/28 01:13:56;;;;;;;0.80;0.80;;;12.50;99.90;;;;;;5110180;27;20815;-84
2023/08/28 01:16:26;;;;;;;0.70;0.70;;;12.50;99.90;;;;;;5113351;27;20043;-84
2023/08/28 01:18:52;;;;;;;0.75;0.75;;;12.50;99.90;;;;;;5114132;27;20058;-85
2023/08/28 01:21:19;;;;;;;0.70;0.70;;;12.40;99.90;;;;;;5098551;27;20046;-84
2023/08/28 01:23:57;;;;;;;0.70;0.70;;;12.60;99.90;;;;;;5100217;27;20055;-85
2023/08/28 01:26:24;;;;;;;0.80;0.80;;;12.70;99.90;;;;;;5114991;27;20738;-86
2023/08/28 01:28:50;;;;;;;0.80;0.80;;;12.60;99.90;;;;;;5121798;27;20076;-86
2023/08/28 01:31:16;;;;;;;0.85;0.85;;;12.80;99.90;;;;;;5102530;27;20046;-89
2023/08/28 01:33:42;;;;;;;0.88;0.88;;;12.70;99.90;;;;;;5120256;27;20119;-85
2023/08/28 01:36:30;;;;;;;0.93;0.93;;;13.00;99.90;;;;;;5117484;27;20046;-84
2023/08/28 01:39:00;;;;;;;0.90;0.90;;;12.90;99.90;;;;;;5114580;27;20819;-86
2023/08/28 01:41:27;;;;;;;0.93;0.93;;;13.10;99.90;;;;;;5099840;27;20070;-87
2023/08/28 01:43:57;;;;;;;0.90;0.90;;;13.10;99.90;;;;;;5098905;27;20050;-86
2023/08/28 01:46:24;;;;;;;0.90;0.90;;;12.90;99.90;;;;;;5113017;27;20547;-88
2023/08/28 01:48:53;;;;;;;0.90;0.90;;;12.80;99.90;;;;;;5103591;27;20057;-87
2023/08/28 01:51:23;;;;;;;0.90;0.90;;;12.70;99.90;;;;;;5121768;27;20047;-87
2023/08/28 01:53:49;;;;;;;0.88;0.88;;;12.70;99.90;;;;;;5104219;27;20086;-87
2023/08/28 01:56:19;;;;;;;0.90;0.90;;;12.80;99.90;;;;;;5100000;27;20047;-86
2023/08/28 01:58:48;;;;;;;0.90;0.90;;;12.90;99.90;;;;;;5121197;27;20066;-84
2023/08/28 02:01:13;;;;;;;0.90;0.90;;;12.70;99.90;;;;;;5116364;27;20470;-83
2023/08/28 02:03:39;;;;;;;1.02;1.02;;;12.80;99.90;;;;;;5122849;27;20047;-85
2023/08/28 02:06:06;;;;;;;0.93;0.93;;;12.90;99.90;;;;;;5106331;27;20705;-85
2023/08/28 02:08:32;;;;;;;0.98;0.98;;;12.70;99.90;;;;;;5104571;27;20035;-85
2023/08/28 02:10:58;;;;;;;0.95;0.95;;;12.60;99.90;;;;;;5120819;27;20039;-86
2023/08/28 02:13:23;;;;;;;0.95;0.95;;;12.60;99.90;;;;;;5122426;27;20218;-84
2023/08/28 02:15:49;;;;;;;0.90;0.90;;;12.80;99.90;;;;;;5120371;27;20483;-85
2023/08/28 02:18:15;;;;;;;0.90;0.90;;;12.80;99.90;;;;;;5125323;27;20039;-84
2023/08/28 02:20:40;;;;;;;0.90;0.90;;;12.50;99.90;;;;;;5120366;27;20050;-84
2023/08/28 02:23:07;;;;;;;0.90;0.90;;;12.70;99.90;;;;;;5105198;27;20038;-85
2023/08/28 02:25:32;;;;;;;0.90;0.90;;;12.60;99.90;;;;;;5126087;27;20546;-85
2023/08/28 02:27:58;;;;;;;0.90;0.90;;;12.60;99.90;;;;;;5123352;27;20046;-86
2023/08/28 02:30:24;;;;;;;0.95;0.95;;;12.60;99.90;;;;;;5124140;27;20078;-86
2023/08/28 02:32:49;;;;;;;0.98;0.98;;;12.80;99.90;;;;;;5105629;27;20045;-85
2023/08/28 02:35:15;;;;;;;0.90;0.90;;;12.50;99.90;;;;;;5122558;27;20046;-86
2023/08/28 02:37:41;;;;;;;1.00;1.00;;;12.60;99.90;;;;;;5123453;27;20074;-86
2023/08/28 02:40:09;;;;;;;1.10;1.10;;;12.40;99.90;;;;;;5129066;27;20360;-88
2023/08/28 02:42:35;;;;;;;0.98;0.98;;;12.60;99.90;;;;;;5107526;27;20108;-87
2023/08/28 02:45:01;;;;;;;0.95;0.95;;;12.80;99.90;;;;;;5101781;27;20039;-85
2023/08/28 02:47:27;;;;;;;1.02;1.02;;;12.70;99.90;;;;;;5100460;27;20043;-84
2023/08/28 02:49:52;;;;;;;1.05;1.05;;;12.50;99.90;;;;;;5116578;27;20491;-85
2023/08/28 02:52:18;;;;;;;1.08;1.08;;;12.60;99.90;;;;;;5121701;27;20046;-84
2023/08/28 02:54:44;;;;;;;1.08;1.08;;;12.70;99.90;;;;;;5122288;27;20035;-85
2023/08/28 02:57:09;;;;;;;0.82;0.82;;;12.60;99.90;;;;;;5102474;27;20443;-85
2023/08/28 02:59:35;;;;;;;0.90;0.90;;;12.50;99.90;;;;;;5119257;27;20662;-86
2023/08/28 03:02:01;;;;;;;1.00;1.00;;;12.60;99.90;;;;;;5098009;27;20089;-86
2023/08/28 03:04:26;;;;;;;0.93;0.93;;;12.60;99.90;;;;;;5121569;27;20055;-85
2023/08/28 03:06:52;;;;;;;1.05;1.05;;;12.60;99.90;;;;;;5120782;27;20046;-84
2023/08/28 03:09:18;;;;;;;0.90;0.90;;;12.70;99.90;;;;;;5119153;27;20046;-86
2023/08/28 03:11:44;;;;;;;0.90;0.90;;;12.70;99.90;;;;;;5115979;27;20054;-85
2023/08/28 03:14:09;;;;;;;0.93;0.93;;;12.80;99.90;;;;;;5118682;27;20045;-85
2023/08/28 03:16:35;;;;;;;0.93;0.93;;;12.70;99.90;;;;;;5117270;27;20122;-85
2023/08/28 03:19:01;;;;;;;0.93;0.93;;;12.60;99.90;;;;;;5119567;27;20443;-85
2023/08/28 03:21:26;;;;;;;0.90;0.90;;;12.50;99.90;;;;;;5126413;27;20066;-84
2023/08/28 03:23:52;;;;;;;0.93;0.93;;;12.40;99.90;;;;;;5123451;27;20125;-85
2023/08/28 03:26:18;;;;;;;0.93;0.93;;;12.50;99.90;;;;;;5108504;27;20153;-86
2023/08/28 03:28:44;;;;;;;0.93;0.93;;;12.60;99.90;;;;;;5128170;27;20498;-86
2023/08/28 03:31:10;;;;;;;1.08;1.08;;;12.70;99.90;;;;;;5123953;27;20050;-85
2023/08/28 03:33:36;;;;;;;1.10;1.10;;;12.50;99.90;;;;;;5127311;27;20115;-85
2023/08/28 03:36:03;;;;;;;1.00;1.00;;;12.40;99.90;;;;;;5124866;27;20500;-85
2023/08/28 03:38:28;;;;;;;1.10;1.10;;;12.30;99.90;;;;;;5104743;27;20047;-85
2023/08/28 03:40:54;;;;;;;1.00;1.00;;;12.30;99.90;;;;;;5124440;27;20047;-85
2023/08/28 03:43:20;;;;;;;0.88;0.88;;;12.10;99.90;;;;;;5108175;27;20061;-85
2023/08/28 03:45:45;;;;;;;0.90;0.90;;;11.90;99.90;;;;;;5125218;27;20050;-84
2023/08/28 03:48:11;;;;;;;1.00;1.00;;;12.00;99.90;;;;;;5107751;27;20052;-84
2023/08/28 03:50:37;;;;;;;1.00;1.00;;;11.90;99.90;;;;;;5125275;27;20035;-84
2023/08/28 03:53:03;;;;;;;0.90;0.90;;;12.10;99.90;;;;;;5120333;27;20070;-85
2023/08/28 03:55:29;;;;;;;0.90;0.90;;;11.90;99.90;;;;;;5123795;27;20038;-85
2023/08/28 03:57:58;;;;;;;2.47;2.38;;;11.80;99.90;;;;;;5122048;27;20046;-85
2023/08/28 04:00:25;;;;;;;0.90;0.90;;;11.90;99.90;;;;;;5123547;27;20043;-84
2023/08/28 04:02:51;;;;;;;1.00;1.00;;;11.70;99.90;;;;;;5120260;27;20057;-84
2023/08/28 04:05:16;;;;;;;0.82;0.82;;;11.90;99.90;;;;;;5123527;27;20641;-85
2023/08/28 04:07:43;;;;;;;0.77;0.77;;;11.90;99.90;;;;;;5125389;27;20050;-84
2023/08/28 04:10:12;;;;;;;1.00;1.00;;;12.10;99.90;;;;;;5121327;27;20043;-84
2023/08/28 04:12:39;;;;;;;0.88;0.88;;;11.90;99.90;;;;;;5122152;27;20057;-83
2023/08/28 04:15:08;;;;;;;0.98;0.98;;;12.00;99.90;;;;;;5119316;27;20050;-83
2023/08/28 04:17:34;;;;;;;1.00;1.00;;;11.90;99.90;;;;;;5123655;27;20090;-84
2023/08/28 04:20:12;;;;;;;0.88;0.88;;;11.60;99.90;;;;;;5121955;27;20050;-84
2023/08/28 04:22:47;;;;;;;0.85;0.85;;;11.80;99.90;;;;;;5123606;27;20111;-85
2023/08/28 04:25:13;;;;;;;1.00;1.00;;;11.80;99.90;;;;;;5125672;27;20148;-84
2023/08/28 04:27:40;;;;;;;0.82;0.82;;;11.70;99.90;;;;;;5101455;27;20047;-84
2023/08/28 04:30:08;;;;;;;0.75;0.75;;;11.80;99.90;;;;;;5108397;27;20068;-85
2023/08/28 04:32:34;;;;;;;0.93;0.93;;;12.00;99.90;;;;;;5107271;27;20038;-83
2023/08/28 04:35:00;;;;;;;0.82;0.82;;;11.90;99.90;;;;;;5124541;27;20088;-83
2023/08/28 04:37:28;;;;;;;0.90;0.90;;;11.80;99.90;;;;;;5124673;27;20043;-83
2023/08/28 04:39:54;;;;;;;0.82;0.82;;;11.90;99.90;;;;;;5124794;27;20073;-83
2023/08/28 04:42:20;;;;;;;0.82;0.82;;;12.00;99.90;;;;;;5125737;27;20475;-85
2023/08/28 04:44:46;;;;;;;0.85;0.85;;;11.90;99.90;;;;;;5120304;27;20045;-82
2023/08/28 04:47:14;;;;;;;0.93;0.93;;;11.70;99.90;;;;;;5120170;27;20035;-83
2023/08/28 04:49:40;;;;;;;0.93;0.93;;;11.70;99.90;;;;;;5124228;27;20045;-84
2023/08/28 04:52:06;;;;;;;0.88;0.88;;;11.80;99.90;;;;;;5132151;27;20425;-84
2023/08/28 04:54:33;;;;;;;0.90;0.90;;;11.80;99.90;;;;;;5107804;27;20049;-84
2023/08/28 04:56:59;;;;;;;1.00;1.00;;;11.80;99.90;;;;;;5118382;27;20039;-85
2023/08/28 04:59:24;;;;;;;0.82;0.82;;;12.00;99.90;;;;;;5103206;27;20118;-84
2023/08/28 05:01:50;;;;;;;0.95;0.95;;;12.00;99.90;;;;;;5123163;27;20051;-84
2023/08/28 05:04:16;;;;;;;1.00;1.00;;;11.90;99.90;;;;;;5124287;27;21093;-83
2023/08/28 05:06:42;;;;;;;1.10;1.10;;;12.10;99.90;;;;;;5121082;27;20066;-84
2023/08/28 05:09:08;;;;;;;1.08;1.08;;;12.30;99.90;;;;;;5103556;27;20039;-84
2023/08/28 05:11:33;;;;;;;1.10;1.10;;;12.20;99.90;;;;;;5121940;27;20061;-84
2023/08/28 05:13:59;;;;;;;1.27;1.27;;;12.20;99.90;;;;;;5119737;27;20134;-84
2023/08/28 05:16:24;;;;;;;1.52;1.45;;;12.20;99.90;;;;;;5122916;27;20130;-83
2023/08/28 05:18:50;;;;;;;1.55;1.45;;;12.90;99.90;;;;;;5115843;27;20050;-83
2023/08/28 05:21:16;;;;;;;1.45;1.38;;;13.30;99.90;;;;;;5105130;27;20049;-83
2023/08/28 05:23:41;;;;;;;1.30;1.27;;;13.90;99.90;;;;;;5123202;27;20054;-84
2023/08/28 05:26:07;;;;;;;1.02;1.02;;;14.80;99.90;;;;;;5124814;27;20048;-84
2023/08/28 05:28:35;;;;;;;0.90;0.90;;;15.60;99.90;;;;;;5123831;27;20045;-85
2023/08/28 05:31:05;;;;;;;0.60;0.60;;;16.50;99.90;;;;;;5120175;27;20069;-85
2023/08/28 05:33:35;;;;;;;0.60;0.60;;;17.20;99.90;;;;;;5120255;27;20046;-85
2023/08/28 05:36:01;;;;;;;0.60;0.60;;;17.90;99.90;;;;;;5123200;27;20283;-84
2023/08/28 05:38:27;;;;;;;0.60;0.60;;;18.30;99.90;;;;;;5122256;27;20041;-84
2023/08/28 05:40:52;;;;;;;0.50;0.50;;;18.60;99.90;;;;;;5117072;27;20472;-84
2023/08/28 05:43:18;;;;;;;0.65;0.65;;;19.30;99.90;;;;;;5122280;27;20038;-84
2023/08/28 05:45:48;;;;;;;0.73;0.73;;;19.70;99.90;;;;;;5103434;27;20047;-85
2023/08/28 05:48:13;;;;;;;1.08;1.08;;;20.10;99.90;;;;;;5101822;27;20054;-83
2023/08/28 05:50:39;;;;;;;1.20;1.20;;;20.20;99.90;;;;;;5113826;27;20500;-86
2023/08/28 05:53:06;;;;;;;1.48;1.38;;;19.30;99.90;;;;;;5118404;27;20723;-85
2023/08/28 05:55:32;;;;;;;1.65;1.55;;;17.80;99.90;;;;;;5119294;27;20123;-85
2023/08/28 05:57:58;;;;;;;0.93;0.93;;;16.90;99.90;;;;;;5103504;27;20066;-83
2023/08/28 06:00:25;;;;;;;0.90;0.90;;;16.50;99.90;;;;;;5120248;27;20042;-83
2023/08/28 06:02:51;;;;;;;0.82;0.82;;;16.20;99.90;;;;;;5119548;27;20129;-85
2023/08/28 06:05:17;;;;;;;0.90;0.90;;;16.20;99.90;;;;;;5121929;27;20581;-85
2023/08/28 06:07:45;;;;;;;0.77;0.77;;;16.00;99.90;;;;;;5120975;27;20070;-84
2023/08/28 06:10:17;;;;;;;0.75;0.75;;;16.00;99.90;;;;;;5121761;27;20039;-85
2023/08/28 06:12:43;;;;;;;0.77;0.77;;;16.00;99.90;;;;;;5121575;27;20049;-84
2023/08/28 06:15:10;;;;;;;0.80;0.80;;;15.90;99.90;;;;;;5119586;27;20050;-84
2023/08/28 06:17:36;;;;;;;0.77;0.77;;;15.90;99.90;;;;;;5117103;27;20118;-84
2023/08/28 06:20:04;;;;;;;0.80;0.80;;;16.00;99.90;;;;;;5119084;27;20154;-85
2023/08/28 06:22:30;;;;;;;0.70;0.70;;;16.00;99.90;;;;;;5120955;27;20145;-84
2023/08/28 06:24:55;;;;;;;0.80;0.80;;;16.00;99.90;;;;;;5117693;27;20122;-85
2023/08/28 06:27:27;;;;;;;0.90;0.90;;;16.00;99.90;;;;;;5115853;27;20067;-88
2023/08/28 06:29:52;;;;;;;0.80;0.80;;;16.10;99.90;;;;;;5119039;27;20492;-86
2023/08/28 06:32:18;;;;;;;0.70;0.70;;;16.10;99.90;;;;;;5124045;27;20050;-85
2023/08/28 06:34:44;;;;;;;0.60;0.60;;;16.30;99.90;;;;;;5118005;27;20054;-85
2023/08/28 06:37:09;;;;;;;0.73;0.73;;;16.40;99.90;;;;;;5099589;27;20039;-86
2023/08/28 06:39:35;;;;;;;0.73;0.73;;;16.40;99.90;;;;;;5117006;27;20141;-86
2023/08/28 06:42:01;;;;;;;1.17;1.17;;;16.60;99.90;;;;;;5101623;27;20067;-85
2023/08/28 06:44:27;;;;;;;1.48;1.42;;;16.50;99.90;;;;;;5101868;27;20053;-86
2023/08/28 06:46:52;;;;;;;0.88;0.88;;;16.50;99.90;;;;;;5123101;27;20046;-85
2023/08/28 06:49:18;;;;;;;0.98;0.98;;;16.70;99.90;;;;;;5122021;27;20039;-87
2023/08/28 06:51:46;;;;;;;0.90;0.90;;;16.60;99.90;;;;;;5121012;27;20125;-87
2023/08/28 06:54:11;;;;;;;1.10;1.10;;;16.80;99.90;;;;;;5105632;27;20058;-88
2023/08/28 06:56:37;;;;;;;1.23;1.23;;;17.00;99.90;;;;;;5109107;27;20043;-87
2023/08/28 06:59:03;;;;;;;1.15;1.15;;;17.10;99.90;;;;;;5128191;27;20034;-86
2023/08/28 07:01:28;;;;;;;1.63;1.52;;;17.10;99.90;;;;;;5120808;27;20118;-89
2023/08/28 07:03:54;;;;;;;1.20;1.20;;;17.20;99.90;;;;;;5106495;27;20408;-86
2023/08/28 07:06:20;;;;;;;1.42;1.38;;;17.40;99.90;;;;;;5121351;27;20121;-86
2023/08/28 07:08:48;;;;;;;1.65;1.55;;;17.50;99.90;;;;;;5107603;27;20047;-88
2023/08/28 07:11:14;;;;;;;1.80;1.70;;;17.50;99.90;;;;;;5125022;27;20057;-89
2023/08/28 07:13:40;;;;;;;1.83;1.73;;;17.60;99.90;;;;;;5107270;27;20054;-86
2023/08/28 07:16:05;;;;;;;1.80;1.70;;;17.80;99.90;;;;;;5123219;27;20035;-86
2023/08/28 07:18:34;;;;;;;1.70;1.60;;;17.80;99.90;;;;;;5106499;27;20070;-85
2023/08/28 07:21:06;;;;;;;1.90;1.80;;;18.00;99.90;;;;;;5103748;27;20066;-87
2023/08/28 07:23:31;;;;;;;1.65;1.55;;;17.90;99.90;;;;;;5126665;27;20046;-85
2023/08/28 07:25:59;;;;;;;1.80;1.70;;;18.00;99.90;;;;;;5119658;27;20053;-87
2023/08/28 07:28:24;;;;;;;1.70;1.60;;;18.20;99.90;;;;;;5108359;27;20042;-86
2023/08/28 07:30:54;;;;;;;1.70;1.60;;;18.20;99.90;;;;;;5127789;27;20047;-86
2023/08/28 07:33:20;;;;;;;1.27;1.27;;;18.30;99.90;;;;;;5125531;27;20138;-87
2023/08/28 07:35:49;;;;;;;1.15;1.15;;;18.30;99.90;;;;;;5123171;27;20130;-85
2023/08/28 07:38:16;;;;;;;1.60;1.50;;;18.30;99.90;;;;;;5119825;27;20483;-86
2023/08/28 07:40:41;;;;;;;1.10;1.10;;;18.40;99.90;;;;;;5102927;27;20051;-84
2023/08/28 07:43:07;;;;;;;0.90;0.90;;;18.60;99.90;;;;;;5123857;27;20070;-85
2023/08/28 07:45:33;;;;;;;0.80;0.80;;;18.70;99.90;;;;;;5125685;27;20050;-86
2023/08/28 07:48:02;;;;;;;0.80;0.80;;;18.70;99.90;;;;;;5120882;27;20042;-85
2023/08/28 07:50:30;;;;;;;0.75;0.75;;;18.90;99.90;;;;;;5118970;27;20482;-86
2023/08/28 07:52:56;;;;;;;0.70;0.70;;;18.90;99.90;;;;;;5125515;27;20070;-87
2023/08/28 07:55:21;;;;;;;0.70;0.70;;;19.10;99.90;;;;;;5104937;27;20793;-86
2023/08/28 07:57:47;;;;;;;0.60;0.60;;;19.40;99.90;;;;;;5124188;27;20046;-87
2023/08/28 08:00:18;;;;;;;0.68;0.68;;;19.40;99.90;;;;;;5109450;27;20062;-87
2023/08/28 08:02:44;;;;;;;0.60;0.60;;;19.50;99.90;;;;;;5107845;27;20038;-89
2023/08/28 08:05:10;;;;;;;0.63;0.63;;;19.30;99.90;;;;;;5101521;27;20046;-85
2023/08/28 08:07:39;;;;;;;0.70;0.70;;;19.60;99.90;;;;;;5114573;27;20050;-87
2023/08/28 08:10:10;;;;;;;0.57;0.57;;;20.10;99.90;;;;;;5103694;27;20100;-87
2023/08/28 08:12:37;;;;;;;0.60;0.60;;;20.30;99.90;;;;;;5114578;27;20078;-85
2023/08/28 08:15:03;;;;;;;0.52;0.52;;;20.30;99.90;;;;;;5108231;27;20046;-88
2023/08/28 08:17:29;;;;;;;0.60;0.60;;;20.10;99.90;;;;;;5103295;27;20043;-87
2023/08/28 08:19:54;;;;;;;0.60;0.60;;;20.00;99.90;;;;;;5123420;27;20043;-85
2023/08/28 08:22:20;;;;;;;0.60;0.60;;;19.90;99.90;;;;;;5125381;27;20138;-85
2023/08/28 08:24:46;;;;;;;0.60;0.60;;;19.60;99.90;;;;;;5106605;27;20486;-87
2023/08/28 08:27:11;;;;;;;0.60;0.60;;;19.50;99.90;;;;;;5124136;27;20055;-86
2023/08/28 08:29:37;;;;;;;0.60;0.60;;;19.60;99.90;;;;;;5110483;27;20038;-85
2023/08/28 08:32:03;;;;;;;0.60;0.60;;;19.40;99.90;;;;;;5123787;27;20054;-86
2023/08/28 08:34:32;;;;;;;0.50;0.50;;;19.70;99.90;;;;;;5127570;27;20042;-86
2023/08/28 08:36:58;;;;;;;0.60;0.60;;;20.10;99.90;;;;;;5103293;27;20089;-86
2023/08/28 08:39:24;;;;;;;0.55;0.55;;;20.20;99.90;;;;;;5118933;27;20047;-86
2023/08/28 08:41:49;;;;;;;0.60;0.60;;;20.40;99.90;;;;;;5128271;27;20038;-84
2023/08/28 08:44:15;;;;;;;0.68;0.68;;;20.50;99.90;;;;;;5123891;27;20054;-86
2023/08/28 08:46:44;;;;;;;0.55;0.55;;;20.60;99.90;;;;;;5107024;27;20395;-87
2023/08/28 08:49:15;;;;;;;0.60;0.60;;;20.90;99.90;;;;;;5110637;27;20043;-87
2023/08/28 08:51:47;;;;;;;0.60;0.60;;;20.60;99.90;;;;;;5127899;27;20132;-87
2023/08/28 08:54:20;;;;;;;0.50;0.50;;;20.90;99.90;;;;;;5126629;27;20126;-87
2023/08/28 08:56:50;;;;;;;0.50;0.50;;;21.20;99.90;;;;;;5103493;27;20425;-88
2023/08/28 08:59:16;;;;;;;0.50;0.50;;;21.40;99.90;;;;;;5110257;27;20512;-89
2023/08/28 09:01:42;;;;;;;0.40;0.40;;;21.60;99.90;;;;;;5129285;27;20047;-89
2023/08/28 09:04:12;;;;;;;0.40;0.40;;;21.80;99.90;;;;;;5111170;27;20050;-87
2023/08/28 09:06:50;;;;;;;0.50;0.50;;;21.70;99.90;;;;;;5126365;27;20808;-89
2023/08/28 09:09:23;;;;;;;0.50;0.50;;;21.40;99.90;;;;;;5110468;27;20065;-88
2023/08/28 09:11:48;;;;;;;0.40;0.40;;;21.10;99.90;;;;;;5127506;27;20046;-90
2023/08/28 09:14:15;;;;;;;0.47;0.47;;;21.40;99.90;;;;;;5123683;27;20043;-95
2023/08/28 09:16:41;;;;;;;0.50;0.50;;;21.60;99.90;;;;;;5120130;27;20068;-88
2023/08/28 09:19:08;;;;;;;0.40;0.40;;;21.60;99.90;;;;;;5122251;27;20035;-90
2023/08/28 09:21:37;;;;;;;0.50;0.50;;;21.20;99.90;;;;;;5106599;27;20107;-88
2023/08/28 09:24:08;;;;;;;0.40;0.40;;;21.20;99.90;;;;;;5126129;27;20054;-88
2023/08/28 09:26:37;;;;;;;0.40;0.40;;;21.60;99.90;;;;;;5126089;27;20039;-88
2023/08/28 09:29:05;;;;;;;0.50;0.50;;;21.50;99.90;;;;;;5126087;27;20043;-90
2023/08/28 09:31:42;;;;;;;0.40;0.40;;;21.10;99.90;;;;;;5104108;27;20121;-89
2023/08/28 09:34:11;;;;;;;0.40;0.40;;;21.60;99.90;;;;;;5110974;27;20043;-91
2023/08/28 09:36:40;;;;;;;0.50;0.50;;;21.50;99.90;;;;;;5111851;27;20091;-88
2023/08/28 09:39:06;;;;;;;0.50;0.50;;;21.00;99.90;;;;;;5126378;27;20039;-88
2023/08/28 09:41:49;;;;;;;0.40;0.40;;;20.70;99.90;;;;;;5127300;27;20046;-87
2023/08/28 09:44:16;;;;;;;0.50;0.50;;;20.30;99.90;;;;;;5121317;27;20050;-88
2023/08/28 09:47:00;;;;;;;0.50;0.50;;;21.00;99.90;;;;;;5103298;27;20062;-87
2023/08/28 09:49:25;;;;;;;0.50;0.50;;;21.50;99.90;;;;;;5117306;27;20038;-88
2023/08/28 09:51:51;;;;;;;0.45;0.45;;;21.90;99.90;;;;;;5109983;27;20121;-87
2023/08/28 09:54:17;;;;;;;0.40;0.40;;;22.00;99.90;;;;;;5126494;27;20046;-86
2023/08/28 09:56:44;;;;;;;0.40;0.40;;;22.20;99.90;;;;;;5122489;27;20046;-91
2023/08/28 09:59:12;;;;;;;0.40;0.40;;;22.40;99.90;;;;;;5105810;27;20065;-89
2023/08/28 10:01:38;;;;;;;0.40;0.40;;;21.70;99.90;;;;;;5127105;27;20047;-88
2023/08/28 10:04:09;;;;;;;0.50;0.50;;;21.70;99.90;;;;;;5106985;27;20041;-88
2023/08/28 10:06:38;;;;;;;0.40;0.40;;;22.00;99.90;;;;;;5116897;27;20038;-88
2023/08/28 10:09:08;;;;;;;0.50;0.50;;;22.30;99.90;;;;;;5106085;27;20110;-88
2023/08/28 10:11:39;;;;;;;0.50;0.50;;;22.30;99.90;;;;;;5108397;27;20039;-88
2023/08/28 10:14:07;;;;;;;0.50;0.50;;;22.60;99.90;;;;;;5110458;27;20074;-87
2023/08/28 10:16:47;;;;;;;0.50;0.50;;;23.00;99.90;;;;;;5128162;27;20487;-87
2023/08/28 10:19:23;;;;;;;0.52;0.52;;;23.40;99.90;;;;;;5110544;27;20039;-92
2023/08/28 10:21:51;;;;;;;0.50;0.50;;;23.20;99.90;;;;;;5126515;27;20130;-92
2023/08/28 10:24:17;;;;;;;0.50;0.50;;;22.60;99.90;;;;;;5104355;27;20114;-92
2023/08/28 10:26:44;;;;;;;0.50;0.50;;;22.90;99.90;;;;;;5110492;27;20039;-87
2023/08/28 10:29:10;;;;;;;0.30;0.30;;;23.30;99.90;;;;;;5119910;27;20488;-91
2023/08/28 10:31:37;;;;;;;0.50;0.50;;;23.60;99.90;;;;;;5103315;27;20043;-88
2023/08/28 10:34:06;;;;;;;0.40;0.40;;;23.50;99.90;;;;;;5123984;27;20066;-92
2023/08/28 10:36:32;;;;;;;0.50;0.50;;;23.90;99.90;;;;;;5109489;27;20081;-88
2023/08/28 10:39:01;;;;;;;0.35;0.35;;;24.20;99.90;;;;;;5129149;27;20045;-90
2023/08/28 10:41:29;;;;;;;0.40;0.40;;;24.20;99.90;;;;;;5102604;27;20043;-91
2023/08/28 10:43:56;;;;;;;0.40;0.40;;;24.50;99.90;;;;;;5109938;27;20449;-91
2023/08/28 10:46:22;;;;;;;0.30;0.30;;;24.30;99.90;;;;;;5129486;27;20079;-90
2023/08/28 10:48:48;;;;;;;0.38;0.38;;;23.90;99.90;;;;;;5107942;27;20077;-92
2023/08/28 10:51:14;;;;;;;0.30;0.30;;;24.30;99.90;;;;;;5132088;27;20047;-91
2023/08/28 10:53:51;;;;;;;0.30;0.30;;;24.60;99.90;;;;;;5109489;27;20111;-96
2023/08/28 10:56:20;;;;;;;0.30;0.30;;;24.70;99.90;;;;;;5112238;27;20066;-92
2023/08/28 10:58:49;;;;;;;0.30;0.30;;;24.60;99.90;;;;;;5114910;27;20397;-96
2023/08/28 11:01:15;;;;;;;0.30;0.30;;;24.70;99.90;;;;;;5108937;27;20102;-91
2023/08/28 11:03:56;;;;;;;0.30;0.30;;;24.10;99.90;;;;;;5129705;27;20555;-90
2023/08/28 11:06:43;;;;;;;0.38;0.38;;;23.80;99.90;;;;;;5112052;27;20062;-91
2023/08/28 11:09:28;;;;;;;0.30;0.30;;;24.10;99.90;;;;;;5120721;27;20120;-92
2023/08/28 11:11:59;;;;;;;0.40;0.40;;;24.60;99.90;;;;;;5129346;27;20047;-90
2023/08/28 11:14:41;;;;;;;0.30;0.30;;;24.70;99.90;;;;;;5106633;27;20075;-94
2023/08/28 11:17:07;;;;;;;0.30;0.30;;;24.60;99.90;;;;;;5110594;27;20124;-91
2023/08/28 11:19:56;;;;;;;0.30;0.30;;;24.70;99.90;;;;;;5110716;27;20052;-93
2023/08/28 11:22:42;;;;;;;0.30;0.30;;;24.70;99.90;;;;;;5100945;27;20050;-89
2023/08/28 11:25:24;;;;;;;;;;;;;;;;;;;;;
2023/08/28 11:27:54;;;;;;;0.30;0.30;;;25.00;99.90;;;;;;5132465;27;20046;-88
2023/08/28 11:30:21;;;;;;;0.30;0.30;;;24.80;99.90;;;;;;5102898;27;20035;-92
2023/08/28 11:35:44;;;;;;;0.30;0.30;;;24.90;99.90;;;;;;5078482;27;20506;-95
2023/08/28 11:38:10;;;;;;;0.38;0.38;;;24.80;99.90;;;;;;5123907;27;20038;-91
2023/08/28 11:40:37;;;;;;;0.30;0.30;;;24.10;99.90;;;;;;5109524;27;20049;-94
2023/08/28 11:43:06;;;;;;;0.30;0.30;;;24.20;99.90;;;;;;5115157;27;20070;-94
2023/08/28 11:45:32;;;;;;;0.30;0.30;;;24.50;99.90;;;;;;5112366;27;20050;-93
2023/08/28 11:48:03;;;;;;;0.30;0.30;;;24.80;99.90;;;;;;5126391;27;20418;-91
2023/08/28 11:50:29;;;;;;;0.30;0.30;;;24.60;99.90;;;;;;5110693;27;20042;-88
2023/08/28 11:52:58;;;;;;;0.30;0.30;;;24.80;99.90;;;;;;5111564;27;20068;-94
2023/08/28 11:55:33;;;;;;;0.30;0.30;;;24.60;99.90;;;;;;5108926;27;20034;-91
2023/08/28 11:57:59;;;;;;;0.40;0.40;;;24.40;99.90;;;;;;5100015;27;20039;-88
2023/08/28 12:00:25;;;;;;;0.30;0.30;;;24.60;99.90;;;;;;5112220;27;20066;-94
2023/08/28 12:02:51;;;;;;;0.30;0.30;;;24.90;99.90;;;;;;5112196;27;20121;-93
2023/08/28 12:05:29;;;;;;;0.30;0.30;;;25.10;99.90;;;;;;5107753;27;20043;-96
2023/08/28 12:08:10;;;;;;;0.30;0.30;;;25.10;99.90;;;;;;5133870;27;20125;-95
2023/08/28 12:10:41;;;;;;;0.30;0.30;;;25.30;99.90;;;;;;5124579;27;20050;-93
2023/08/28 12:13:07;;;;;;;0.40;0.40;;;25.00;99.90;;;;;;5131586;27;20043;-91
2023/08/28 12:15:38;;;;;;;0.32;0.30;;;24.80;99.90;;;;;;5125823;27;20039;-96
2023/08/28 12:18:05;;;;;;;0.40;0.40;;;24.30;99.90;;;;;;5110107;27;20081;-93
2023/08/28 12:20:35;;;;;;;0.30;0.30;;;24.30;99.90;;;;;;5122283;27;20058;-89
2023/08/28 12:23:02;;;;;;;0.30;0.30;;;24.50;99.90;;;;;;5118600;27;20069;-91
2023/08/28 12:25:33;;;;;;;0.30;0.30;;;24.40;99.90;;;;;;5116970;27;20054;-95
2023/08/28 12:28:16;;;;;;;0.30;0.30;;;24.60;99.90;;;;;;5128098;27;20172;-96
2023/08/28 12:30:42;;;;;;;0.30;0.30;;;24.70;99.90;;;;;;5109082;27;20526;-91
2023/08/28 12:33:15;;;;;;;0.30;0.30;;;24.70;99.90;;;;;;5116830;27;20129;-94
2023/08/28 12:35:53;;;;;;;0.30;0.30;;;24.80;99.90;;;;;;5117282;27;20130;-95
2023/08/28 12:38:50;;;;;;;0.30;0.30;;;25.00;99.90;;;;;;5117673;27;20043;-93
2023/08/28 12:41:19;;;;;;;0.30;0.30;;;25.40;99.90;;;;;;5114033;27;20042;-90
2023/08/28 12:43:45;;;;;;;0.30;0.30;;;26.00;99.90;;;;;;5117272;27;20038;-93
2023/08/28 12:46:15;;;;;;;0.30;0.30;;;26.00;99.90;;;;;;5115268;27;20039;-93
2023/08/28 12:48:40;;;;;;;0.30;0.30;;;25.60;99.90;;;;;;5110509;27;20042;-93
2023/08/28 12:51:06;;;;;;;0.30;0.30;;;25.20;99.90;;;;;;5111857;27;20043;-94
2023/08/28 12:53:32;;;;;;;0.30;0.30;;;24.50;99.90;;;;;;5108072;27;20121;-90
2023/08/28 12:55:58;;;;;;;0.75;0.40;;;24.40;99.90;;;;;;5114931;27;20122;-91